Time;durP1;ratioP1;P1;durP2;ratioP2;P2;SDS_P1;SDS_P2;PMS_P1;PMS_P2;Temp;Humidity;BMP_temperature;BMP_pressure;BME280_temperature;BME280_humidity;BME280_pressure;Samples;Min_cycle;Max_cycle;Signal;HPM_P1;HPM_P2
2022/12/05 00:00:33;;;;;;;37.35;23.77;;;9.10;90.40;;;;;;4992823;28;20033;-54
2022/12/05 00:03:03;;;;;;;39.78;25.55;;;9.20;90.30;;;;;;4994027;28;20027;-52
2022/12/05 00:05:29;;;;;;;39.10;24.38;;;9.20;90.20;;;;;;4993562;28;20030;-51
2022/12/05 00:07:55;;;;;;;38.83;23.58;;;9.30;90.20;;;;;;4993976;28;20089;-53
2022/12/05 00:10:21;;;;;;;36.28;24.48;;;9.30;90.10;;;;;;5011436;28;20022;-52
2022/12/05 00:12:47;;;;;;;37.70;23.85;;;9.30;90.00;;;;;;5010266;28;20069;-55
2022/12/05 00:15:13;;;;;;;37.65;24.88;;;9.30;90.20;;;;;;5005601;28;20061;-55
2022/12/05 00:17:39;;;;;;;39.03;24.25;;;9.30;90.10;;;;;;4993730;28;20030;-51
2022/12/05 00:20:06;;;;;;;39.47;25.10;;;9.40;90.00;;;;;;4993866;28;20018;-50
2022/12/05 00:22:37;;;;;;;37.00;24.40;;;9.30;90.10;;;;;;4992343;28;20025;-49
2022/12/05 00:25:07;;;;;;;34.03;23.08;;;9.30;90.20;;;;;;5009800;28;20025;-49
2022/12/05 00:27:33;;;;;;;35.58;24.45;;;9.30;90.30;;;;;;5012609;28;20494;-59
2022/12/05 00:29:59;;;;;;;35.05;23.40;;;9.20;90.40;;;;;;5001891;28;20120;-52
2022/12/05 00:32:26;;;;;;;34.60;23.10;;;9.30;90.60;;;;;;4993489;28;20069;-53
2022/12/05 00:34:52;;;;;;;35.90;23.70;;;9.30;90.20;;;;;;5002677;28;20033;-55
2022/12/05 00:37:17;;;;;;;33.55;22.83;;;9.30;90.20;;;;;;5012895;28;20034;-60
2022/12/05 00:39:43;;;;;;;35.10;23.83;;;9.10;90.50;;;;;;5012849;28;20105;-53
2022/12/05 00:42:09;;;;;;;37.72;23.13;;;9.30;90.30;;;;;;5011904;28;20029;-52
2022/12/05 00:44:34;;;;;;;38.17;22.38;;;9.30;90.30;;;;;;5012537;28;20026;-56
2022/12/05 00:47:00;;;;;;;34.88;23.13;;;9.30;90.20;;;;;;5002562;28;20034;-56
2022/12/05 00:49:26;;;;;;;36.00;22.95;;;9.30;90.50;;;;;;4992106;28;20034;-60
2022/12/05 00:51:51;;;;;;;32.78;21.75;;;9.30;90.40;;;;;;4998706;28;20487;-58
2022/12/05 00:54:17;;;;;;;33.15;21.77;;;9.30;90.40;;;;;;5006461;28;20049;-55
2022/12/05 00:56:44;;;;;;;35.28;21.70;;;9.30;90.40;;;;;;5017759;28;20101;-53
2022/12/05 00:59:17;;;;;;;33.67;23.35;;;9.30;90.30;;;;;;4996618;28;20029;-57
2022/12/05 01:01:44;;;;;;;31.33;21.88;;;9.30;90.40;;;;;;5010466;28;20030;-62
2022/12/05 01:04:14;;;;;;;33.47;20.90;;;9.40;90.10;;;;;;5017242;28;20018;-62
2022/12/05 01:06:40;;;;;;;30.95;21.20;;;9.40;90.10;;;;;;5016212;28;20028;-52
2022/12/05 01:09:07;;;;;;;31.38;20.75;;;9.40;90.20;;;;;;5016830;28;20048;-52
2022/12/05 01:11:33;;;;;;;31.38;20.75;;;9.30;90.20;;;;;;5015122;28;20394;-59
2022/12/05 01:13:59;;;;;;;31.40;21.20;;;9.20;90.60;;;;;;5016800;28;20025;-54
2022/12/05 01:16:31;;;;;;;28.90;20.10;;;9.30;90.40;;;;;;4997620;28;20131;-52
2022/12/05 01:19:01;;;;;;;31.20;20.75;;;9.30;90.30;;;;;;4997116;28;20015;-64
2022/12/05 01:21:26;;;;;;;33.80;20.08;;;9.10;90.60;;;;;;4996453;28;20022;-66
2022/12/05 01:23:52;;;;;;;33.17;22.27;;;9.10;90.80;;;;;;4996875;28;20026;-57
2022/12/05 01:26:20;;;;;;;29.17;19.27;;;9.30;90.60;;;;;;4997347;28;20037;-55
2022/12/05 01:28:46;;;;;;;33.50;20.83;;;9.30;90.70;;;;;;5011158;28;20032;-54
2022/12/05 01:31:24;;;;;;;31.17;20.60;;;9.20;90.80;;;;;;4995418;28;20062;-59
2022/12/05 01:33:51;;;;;;;33.63;20.50;;;9.20;90.90;;;;;;4996833;28;20066;-57
2022/12/05 01:36:17;;;;;;;30.42;20.60;;;9.20;90.90;;;;;;4997238;28;20026;-65
2022/12/05 01:38:44;;;;;;;31.48;21.02;;;9.20;91.00;;;;;;4996682;28;20157;-58
2022/12/05 01:41:31;;;;;;;29.50;20.35;;;9.20;91.00;;;;;;4996617;28;20122;-66
2022/12/05 01:43:59;;;;;;;31.00;20.70;;;9.20;91.10;;;;;;4996391;28;20087;-64
2022/12/05 01:46:26;;;;;;;33.45;21.88;;;9.30;91.00;;;;;;4996529;28;20022;-66
2022/12/05 01:49:03;;;;;;;33.20;22.73;;;9.10;91.30;;;;;;5006759;28;20447;-58
2022/12/05 01:51:32;;;;;;;31.00;21.58;;;9.20;91.30;;;;;;5015523;28;20041;-62
2022/12/05 01:53:59;;;;;;;36.00;22.38;;;9.20;91.40;;;;;;5015869;28;20022;-56
2022/12/05 01:56:25;;;;;;;31.23;22.17;;;9.30;91.40;;;;;;5012192;28;20026;-65
2022/12/05 01:58:52;;;;;;;31.35;21.33;;;9.20;91.50;;;;;;4996171;28;20105;-50
2022/12/05 02:01:19;;;;;;;34.22;22.42;;;9.20;91.40;;;;;;4996407;28;20068;-65
2022/12/05 02:03:47;;;;;;;32.97;22.00;;;9.20;91.60;;;;;;5008934;28;20525;-65
2022/12/05 02:06:13;;;;;;;35.70;23.00;;;9.30;91.60;;;;;;5015332;28;20049;-56
2022/12/05 02:08:39;;;;;;;30.48;20.88;;;9.10;91.80;;;;;;5014674;28;20037;-65
2022/12/05 02:11:06;;;;;;;32.20;21.42;;;9.10;91.90;;;;;;5015691;28;20091;-61
2022/12/05 02:13:58;;;;;;;32.70;21.52;;;9.10;91.90;;;;;;5015561;28;20068;-65
2022/12/05 02:16:48;;;;;;;33.73;22.17;;;9.10;92.00;;;;;;5012605;28;20036;-56
2022/12/05 02:19:47;;;;;;;32.33;21.55;;;9.20;92.00;;;;;;4996084;28;20073;-64
2022/12/05 02:22:28;;;;;;;32.28;20.90;;;9.10;92.20;;;;;;4994664;28;20048;-58
2022/12/05 02:25:18;;;;;;;31.80;20.60;;;9.10;92.20;;;;;;4995847;28;20061;-51
2022/12/05 02:28:26;;;;;;;28.05;21.20;;;9.00;92.30;;;;;;4998361;28;20478;-58
2022/12/05 02:30:56;;;;;;;30.45;21.75;;;9.00;92.40;;;;;;5002485;28;20030;-57
2022/12/05 02:33:36;;;;;;;31.20;21.73;;;9.00;92.30;;;;;;4995480;28;20076;-66
2022/12/05 02:36:20;;;;;;;29.13;19.83;;;8.90;92.50;;;;;;4995745;28;20030;-64
2022/12/05 02:38:50;;;;;;;32.00;21.45;;;8.90;92.60;;;;;;4995455;28;20037;-65
2022/12/05 02:41:33;;;;;;;32.00;22.00;;;9.00;92.60;;;;;;5008027;28;20038;-61
2022/12/05 02:44:07;;;;;;;31.88;20.98;;;9.00;92.60;;;;;;5014705;28;20022;-65
2022/12/05 02:46:36;;;;;;;31.25;21.17;;;9.00;92.70;;;;;;5015153;28;20072;-65
2022/12/05 02:49:09;;;;;;;32.05;21.83;;;9.10;92.50;;;;;;5014707;28;20022;-63
2022/12/05 02:51:40;;;;;;;30.85;22.08;;;9.10;92.40;;;;;;5013714;28;20092;-61
2022/12/05 02:54:10;;;;;;;35.15;21.52;;;9.10;92.50;;;;;;5010739;28;20030;-64
2022/12/05 02:56:36;;;;;;;32.08;22.40;;;9.10;92.60;;;;;;4995371;28;20467;-64
2022/12/05 02:59:02;;;;;;;30.60;21.48;;;9.00;92.80;;;;;;4995162;28;20109;-61
2022/12/05 03:01:31;;;;;;;36.70;23.30;;;9.00;92.70;;;;;;4995219;28;20377;-62
2022/12/05 03:04:00;;;;;;;34.85;22.20;;;9.00;92.70;;;;;;4994588;28;20479;-62
2022/12/05 03:06:36;;;;;;;29.75;21.10;;;9.00;92.80;;;;;;4995045;28;20038;-65
2022/12/05 03:09:15;;;;;;;31.98;21.77;;;9.00;92.70;;;;;;5006292;28;20487;-61
2022/12/05 03:11:52;;;;;;;32.30;21.00;;;9.10;92.80;;;;;;5014574;28;20064;-58
2022/12/05 03:14:28;;;;;;;36.30;23.13;;;9.10;92.80;;;;;;5014347;28;20467;-64
2022/12/05 03:16:59;;;;;;;36.35;22.52;;;9.10;92.90;;;;;;5006811;28;20395;-62
2022/12/05 03:19:33;;;;;;;33.53;23.13;;;9.10;92.70;;;;;;4994715;28;20088;-62
2022/12/05 03:22:05;;;;;;;32.72;23.05;;;9.10;92.80;;;;;;4996872;28;20127;-65
2022/12/05 03:24:36;;;;;;;38.20;23.38;;;9.10;93.20;;;;;;5014421;28;20018;-65
2022/12/05 03:27:30;;;;;;;32.15;21.38;;;9.10;93.10;;;;;;5014162;28;20104;-63
2022/12/05 03:30:08;;;;;;;33.08;21.80;;;9.10;93.20;;;;;;5014051;28;20022;-61
2022/12/05 03:32:51;;;;;;;32.60;22.02;;;9.10;93.10;;;;;;5014033;28;20026;-58
2022/12/05 03:35:27;;;;;;;33.33;22.80;;;9.00;93.20;;;;;;5013971;28;20037;-60
2022/12/05 03:38:06;;;;;;;38.38;25.20;;;9.10;93.20;;;;;;4998912;28;20042;-62
2022/12/05 03:40:46;;;;;;;37.03;24.95;;;9.00;93.10;;;;;;5014030;28;20435;-64
2022/12/05 03:43:34;;;;;;;38.30;23.95;;;9.00;93.20;;;;;;5014003;28;20029;-55
2022/12/05 03:46:05;;;;;;;31.75;23.08;;;9.00;93.20;;;;;;5013342;28;20316;-63
2022/12/05 03:48:30;;;;;;;39.97;26.58;;;8.90;93.20;;;;;;5012696;28;20164;-61
2022/12/05 03:50:58;;;;;;;34.78;23.98;;;9.00;93.20;;;;;;5013784;28;20432;-57
2022/12/05 03:53:30;;;;;;;38.70;25.23;;;9.00;93.10;;;;;;5013928;28;20117;-56
2022/12/05 03:56:03;;;;;;;;;;;9.00;93.20;;;;;;5014062;28;20032;-52
2022/12/05 03:58:36;;;;;;;34.95;23.63;;;9.10;93.50;;;;;;5013846;28;19912;-65
2022/12/05 04:01:04;;;;;;;38.65;23.83;;;8.90;93.30;;;;;;5013207;28;20022;-55
2022/12/05 04:03:38;;;;;;;40.30;27.02;;;9.00;93.30;;;;;;5000989;28;20042;-64
2022/12/05 04:06:25;;;;;;;35.47;25.15;;;9.00;93.40;;;;;;4993799;28;20038;-51
2022/12/05 04:08:57;;;;;;;37.28;25.88;;;9.00;93.40;;;;;;4993780;28;20045;-57
2022/12/05 04:11:26;;;;;;;41.33;25.88;;;9.00;93.40;;;;;;4993570;28;20033;-63
2022/12/05 04:14:00;;;;;;;37.08;25.75;;;9.00;93.40;;;;;;4993941;28;20599;-54
2022/12/05 04:17:02;;;;;;;36.70;25.90;;;9.10;93.40;;;;;;4994673;28;20015;-54
2022/12/05 04:21:36;;;;;;;38.17;25.23;;;9.00;93.60;;;;;;5011745;28;20030;-57
2022/12/05 04:22:17;;;;;;;38.75;26.15;;;9.10;93.50;;;;;;5013267;28;20037;-52
2022/12/05 04:27:39;;;;;;;42.55;27.85;;;9.10;93.30;;;;;;5009400;28;20109;-65
2022/12/05 04:30:18;;;;;;;37.30;25.77;;;8.90;93.50;;;;;;4993132;28;20049;-57
2022/12/05 04:33:18;;;;;;;37.13;25.50;;;8.90;93.60;;;;;;4993525;28;20042;-54
2022/12/05 04:35:53;;;;;;;39.58;26.60;;;9.00;93.60;;;;;;4993639;28;20511;-63
2022/12/05 04:38:46;;;;;;;40.88;26.23;;;9.00;93.50;;;;;;4993551;28;20026;-57
2022/12/05 04:41:31;;;;;;;41.58;27.02;;;9.00;93.60;;;;;;4993633;28;20027;-56
2022/12/05 04:44:01;;;;;;;40.60;26.52;;;9.00;93.70;;;;;;4992260;28;20030;-59
2022/12/05 04:46:27;;;;;;;38.72;26.00;;;9.00;93.70;;;;;;4993337;28;20030;-53
2022/12/05 04:48:57;;;;;;;38.65;25.13;;;9.00;93.90;;;;;;4993543;28;20034;-66
2022/12/05 04:51:25;;;;;;;39.53;26.50;;;8.80;94.10;;;;;;4998560;28;20025;-60
2022/12/05 04:53:55;;;;;;;36.25;26.13;;;9.00;93.90;;;;;;5013178;28;20088;-55
2022/12/05 04:56:25;;;;;;;35.10;24.35;;;9.00;93.90;;;;;;5012976;28;20025;-66
2022/12/05 04:58:51;;;;;;;36.35;25.80;;;9.00;93.90;;;;;;5004884;28;20030;-53
2022/12/05 05:01:26;;;;;;;38.20;25.95;;;9.00;94.00;;;;;;4993360;28;20383;-59
2022/12/05 05:03:55;;;;;;;34.80;25.75;;;8.90;94.10;;;;;;4993456;28;20034;-55
2022/12/05 05:06:20;;;;;;;40.80;25.80;;;8.90;94.10;;;;;;4993245;28;20062;-57
2022/12/05 05:08:51;;;;;;;35.58;25.50;;;9.00;94.10;;;;;;4993296;28;20085;-52
2022/12/05 05:11:23;;;;;;;36.50;25.80;;;8.90;94.10;;;;;;4993037;28;20022;-52
2022/12/05 05:13:49;;;;;;;35.17;25.10;;;9.00;94.20;;;;;;5001751;28;20045;-57
2022/12/05 05:16:17;;;;;;;36.00;25.80;;;9.00;94.20;;;;;;5012568;28;20022;-54
2022/12/05 05:18:44;;;;;;;35.40;24.60;;;8.90;94.40;;;;;;5013045;28;20053;-54
2022/12/05 05:21:22;;;;;;;36.45;24.23;;;9.00;94.30;;;;;;5000865;28;20023;-52
2022/12/05 05:23:48;;;;;;;31.70;23.25;;;9.40;93.60;;;;;;4993107;28;20081;-56
2022/12/05 05:26:15;;;;;;;33.85;23.17;;;9.60;91.70;;;;;;4993059;28;20022;-51
2022/12/05 05:28:40;;;;;;;33.60;22.95;;;9.70;91.10;;;;;;5005460;28;20364;-52
2022/12/05 05:31:06;;;;;;;32.80;23.67;;;9.80;90.70;;;;;;5012655;28;20105;-51
2022/12/05 05:33:33;;;;;;;31.80;21.90;;;9.80;90.50;;;;;;5012577;28;20084;-64
2022/12/05 05:36:06;;;;;;;30.73;22.45;;;9.90;90.30;;;;;;5012888;28;20026;-53
2022/12/05 05:38:40;;;;;;;30.13;21.48;;;10.00;90.00;;;;;;5012416;28;20034;-63
2022/12/05 05:41:15;;;;;;;29.63;22.23;;;10.10;89.80;;;;;;5012727;28;20161;-66
2022/12/05 05:43:41;;;;;;;30.95;22.67;;;10.00;89.80;;;;;;4999368;28;20118;-58
2022/12/05 05:46:07;;;;;;;30.85;22.90;;;10.20;89.30;;;;;;4996702;28;20536;-59
2022/12/05 05:48:33;;;;;;;28.05;21.27;;;10.20;89.70;;;;;;4996501;28;20042;-65
2022/12/05 05:51:00;;;;;;;30.17;22.48;;;10.30;88.60;;;;;;4996445;28;20022;-56
2022/12/05 05:53:25;;;;;;;31.73;23.73;;;10.30;89.50;;;;;;5006808;28;20034;-63
2022/12/05 05:55:51;;;;;;;32.38;23.17;;;10.20;88.90;;;;;;5010797;28;20026;-52
2022/12/05 05:58:16;;;;;;;36.15;23.60;;;10.30;88.80;;;;;;5003943;28;20030;-59
2022/12/05 06:00:42;;;;;;;33.40;23.88;;;10.30;91.40;;;;;;5007370;28;20100;-52
2022/12/05 06:03:08;;;;;;;34.72;25.52;;;10.00;92.30;;;;;;5007000;28;20142;-58
2022/12/05 06:05:33;;;;;;;32.83;24.58;;;9.80;92.70;;;;;;5007315;28;20048;-65
2022/12/05 06:07:59;;;;;;;35.75;25.50;;;9.60;93.10;;;;;;5012167;28;20505;-64
2022/12/05 06:10:24;;;;;;;33.78;25.20;;;9.60;93.20;;;;;;5012996;28;20060;-60
2022/12/05 06:12:50;;;;;;;37.45;25.40;;;9.60;93.30;;;;;;5010869;28;20116;-57
2022/12/05 06:15:16;;;;;;;40.47;28.45;;;9.50;93.80;;;;;;5008249;28;20053;-59
2022/12/05 06:17:41;;;;;;;35.75;25.73;;;9.60;93.50;;;;;;5008177;28;20058;-63
2022/12/05 06:20:07;;;;;;;32.53;25.33;;;9.60;93.70;;;;;;5011453;28;20101;-58
2022/12/05 06:22:33;;;;;;;36.85;25.60;;;9.50;93.70;;;;;;5014698;28;20383;-65
2022/12/05 06:24:59;;;;;;;34.90;26.33;;;9.70;93.80;;;;;;5015428;28;20018;-63
2022/12/05 06:27:27;;;;;;;34.33;25.75;;;9.80;93.70;;;;;;5012972;28;20365;-60
2022/12/05 06:29:53;;;;;;;34.35;23.98;;;9.70;93.70;;;;;;5010788;28;20044;-61
2022/12/05 06:32:18;;;;;;;33.72;21.90;;;9.80;94.50;;;;;;5003274;28;20479;-58
2022/12/05 06:34:44;;;;;;;37.65;23.17;;;10.30;94.50;;;;;;5012670;28;20027;-59
2022/12/05 06:37:10;;;;;;;38.63;24.75;;;10.40;93.80;;;;;;5011745;28;20042;-68
2022/12/05 06:39:35;;;;;;;40.38;25.40;;;10.30;93.40;;;;;;5008691;28;20093;-53
2022/12/05 06:42:01;;;;;;;36.40;23.90;;;10.20;93.40;;;;;;4999329;28;20026;-53
2022/12/05 06:44:27;;;;;;;59.25;25.48;;;10.50;93.50;;;;;;5006696;28;20113;-51
2022/12/05 06:46:53;;;;;;;58.00;25.15;;;10.30;93.10;;;;;;5009283;28;20075;-56
2022/12/05 06:49:20;;;;;;;43.28;24.73;;;10.10;93.50;;;;;;5008434;28;20017;-71
2022/12/05 06:51:46;;;;;;;48.53;23.92;;;10.20;93.60;;;;;;5002404;28;20030;-63
2022/12/05 06:54:12;;;;;;;36.75;24.25;;;10.10;93.70;;;;;;5005133;28;20030;-59
2022/12/05 06:56:38;;;;;;;41.08;25.00;;;10.30;93.50;;;;;;4994862;28;20100;-57
2022/12/05 06:59:04;;;;;;;39.13;24.98;;;10.30;93.30;;;;;;4995055;28;20117;-55
2022/12/05 07:01:39;;;;;;;39.85;23.33;;;10.40;93.20;;;;;;5003084;28;20081;-66
2022/12/05 07:04:23;;;;;;;34.67;24.48;;;10.30;93.30;;;;;;5008728;28;20499;-60
2022/12/05 07:06:50;;;;;;;41.38;24.52;;;10.30;93.50;;;;;;5011216;28;20021;-59
2022/12/05 07:09:17;;;;;;;37.42;23.17;;;10.50;93.40;;;;;;5008238;28;20030;-54
2022/12/05 07:11:48;;;;;;;36.13;24.30;;;10.50;93.40;;;;;;5007749;28;20029;-63
2022/12/05 07:14:13;;;;;;;40.20;24.33;;;10.60;93.30;;;;;;5012706;28;21068;-59
2022/12/05 07:16:39;;;;;;;40.75;24.40;;;10.60;93.40;;;;;;5010885;28;20481;-60
2022/12/05 07:19:05;;;;;;;67.80;25.00;;;10.70;93.30;;;;;;5015640;28;20479;-64
2022/12/05 07:21:31;;;;;;;45.28;26.13;;;10.70;93.40;;;;;;5014253;28;20033;-65
2022/12/05 07:23:56;;;;;;;60.28;25.48;;;10.70;93.10;;;;;;5009720;28;20069;-55
2022/12/05 07:26:23;;;;;;;53.65;24.58;;;10.70;93.10;;;;;;5009640;28;20109;-64
2022/12/05 07:28:50;;;;;;;61.28;23.52;;;10.70;93.00;;;;;;5013148;28;20045;-58
2022/12/05 07:31:19;;;;;;;71.22;23.77;;;10.60;93.30;;;;;;5012992;28;20546;-60
2022/12/05 07:33:45;;;;;;;51.03;22.20;;;10.80;93.60;;;;;;5014060;28;20030;-57
2022/12/05 07:36:16;;;;;;;54.33;22.70;;;11.40;93.10;;;;;;5013022;28;20029;-66
2022/12/05 07:38:44;;;;;;;40.88;21.63;;;11.40;92.50;;;;;;5007229;28;20452;-64
2022/12/05 07:41:16;;;;;;;51.13;21.15;;;11.10;92.50;;;;;;5003096;28;20098;-62
2022/12/05 07:43:42;;;;;;;36.13;21.20;;;10.90;92.80;;;;;;5013300;28;20467;-60
2022/12/05 07:46:11;;;;;;;43.00;20.13;;;10.80;93.20;;;;;;5013319;28;20026;-59
2022/12/05 07:48:37;;;;;;;35.53;22.33;;;10.90;93.40;;;;;;5010797;28;20037;-58
2022/12/05 07:51:05;;;;;;;40.78;21.52;;;10.80;93.10;;;;;;5010328;28;20105;-59
2022/12/05 07:53:32;;;;;;;41.67;19.88;;;10.70;93.40;;;;;;5012923;28;20120;-65
2022/12/05 07:55:59;;;;;;;44.47;20.13;;;11.10;93.60;;;;;;5013507;28;20029;-66
2022/12/05 07:58:27;;;;;;;35.50;19.25;;;11.10;93.30;;;;;;5013165;28;20026;-61
2022/12/05 08:00:52;;;;;;;31.73;20.00;;;11.00;93.20;;;;;;5011850;28;20030;-63
2022/12/05 08:03:18;;;;;;;40.83;19.80;;;10.90;93.10;;;;;;5011133;28;20076;-59
2022/12/05 08:05:44;;;;;;;31.42;20.35;;;10.70;93.60;;;;;;5021271;28;20098;-65
2022/12/05 08:08:09;;;;;;;27.70;16.40;;;10.80;93.60;;;;;;5009435;28;20061;-66
2022/12/05 08:10:35;;;;;;;28.60;18.20;;;11.40;93.20;;;;;;5015436;28;20033;-65
2022/12/05 08:13:01;;;;;;;33.35;18.35;;;11.70;92.60;;;;;;5010771;28;20398;-67
2022/12/05 08:15:26;;;;;;;47.30;19.88;;;11.90;92.50;;;;;;5022045;28;20033;-64
2022/12/05 08:17:52;;;;;;;26.70;17.85;;;11.90;92.50;;;;;;5006576;28;20792;-66
2022/12/05 08:20:17;;;;;;;36.30;19.23;;;11.90;92.20;;;;;;5017718;28;20034;-66
2022/12/05 08:22:43;;;;;;;24.00;16.50;;;11.90;92.30;;;;;;4996318;28;20386;-66
2022/12/05 08:25:09;;;;;;;32.00;17.60;;;11.90;92.20;;;;;;5007347;28;20037;-66
2022/12/05 08:27:35;;;;;;;29.50;16.15;;;11.90;92.40;;;;;;5018886;28;20823;-67
2022/12/05 08:30:01;;;;;;;30.55;18.38;;;11.90;92.40;;;;;;5011248;28;20034;-66
2022/12/05 08:32:26;;;;;;;23.88;17.83;;;11.80;92.60;;;;;;5014978;28;20526;-67
2022/12/05 08:34:52;;;;;;;29.05;16.23;;;11.70;92.50;;;;;;5019794;28;20036;-62
2022/12/05 08:37:18;;;;;;;29.00;16.70;;;11.60;92.50;;;;;;5006711;28;20035;-66
2022/12/05 08:39:43;;;;;;;24.52;15.07;;;11.70;92.60;;;;;;5007773;28;20145;-67
2022/12/05 08:42:09;;;;;;;26.63;15.15;;;11.70;92.60;;;;;;5017653;28;20037;-66
2022/12/05 08:44:35;;;;;;;26.75;16.23;;;11.60;92.90;;;;;;5013204;28;20382;-66
2022/12/05 08:47:00;;;;;;;31.02;16.45;;;11.70;93.00;;;;;;5016669;28;20490;-68
2022/12/05 08:49:27;;;;;;;28.50;17.33;;;11.80;93.00;;;;;;5023386;28;20083;-66
2022/12/05 08:51:52;;;;;;;31.70;17.17;;;11.90;92.90;;;;;;5027263;28;20066;-66
2022/12/05 08:54:18;;;;;;;42.50;18.67;;;12.00;92.70;;;;;;5012423;28;20069;-61
2022/12/05 08:56:44;;;;;;;38.88;19.23;;;12.00;93.00;;;;;;5013932;28;20037;-61
2022/12/05 08:59:10;;;;;;;43.17;19.80;;;12.00;92.90;;;;;;5016020;28;20037;-69
2022/12/05 09:01:37;;;;;;;57.47;20.98;;;12.20;92.80;;;;;;5016093;28;20022;-59
2022/12/05 09:04:04;;;;;;;37.08;18.00;;;12.30;92.40;;;;;;5017765;28;20108;-57
2022/12/05 09:06:30;;;;;;;30.80;18.02;;;12.50;92.20;;;;;;5019568;28;20478;-57
2022/12/05 09:08:58;;;;;;;25.48;17.52;;;12.30;91.40;;;;;;5001713;28;20479;-57
2022/12/05 09:11:27;;;;;;;34.70;17.98;;;12.00;91.70;;;;;;5009574;28;20441;-58
2022/12/05 09:13:54;;;;;;;53.10;18.50;;;11.90;92.10;;;;;;5011000;28;20479;-58
2022/12/05 09:16:24;;;;;;;31.38;17.80;;;11.90;92.30;;;;;;5009360;28;20084;-57
2022/12/05 09:18:51;;;;;;;29.45;16.70;;;11.90;92.40;;;;;;5012766;28;20038;-58
2022/12/05 09:21:26;;;;;;;29.77;17.00;;;11.80;92.20;;;;;;5013047;28;20133;-56
2022/12/05 09:23:52;;;;;;;26.45;15.88;;;11.80;92.40;;;;;;5010775;28;20042;-57
2022/12/05 09:26:20;;;;;;;25.38;17.55;;;11.80;92.50;;;;;;5010133;28;20018;-58
2022/12/05 09:28:47;;;;;;;26.13;17.48;;;11.70;92.50;;;;;;5013377;28;20077;-56
2022/12/05 09:31:18;;;;;;;26.58;16.13;;;11.70;92.50;;;;;;5014300;28;20040;-55
2022/12/05 09:33:44;;;;;;;29.38;15.85;;;11.70;92.50;;;;;;5012596;28;20524;-57
2022/12/05 09:36:13;;;;;;;20.70;14.23;;;11.70;92.80;;;;;;5012938;28;20034;-58
2022/12/05 09:38:39;;;;;;;19.15;14.30;;;12.00;92.60;;;;;;5006558;28;20477;-57
2022/12/05 09:42:11;;;;;;;27.48;15.68;;;12.20;92.40;;;;;;5006433;28;20050;-57
2022/12/05 09:44:44;;;;;;;22.17;14.97;;;12.20;91.90;;;;;;4998698;28;20038;-56
2022/12/05 09:47:35;;;;;;;27.02;14.65;;;11.90;92.20;;;;;;5014492;28;20038;-55
2022/12/05 09:50:13;;;;;;;29.48;16.27;;;12.20;92.60;;;;;;5014330;28;20029;-60
2022/12/05 09:52:43;;;;;;;23.50;16.63;;;12.40;91.70;;;;;;5012925;28;20134;-55
2022/12/05 09:55:15;;;;;;;23.45;15.65;;;12.00;91.60;;;;;;5003232;28;20122;-56
2022/12/05 09:57:51;;;;;;;31.15;18.02;;;11.80;91.90;;;;;;5010325;28;20492;-56
2022/12/05 10:00:17;;;;;;;26.50;16.23;;;11.70;92.30;;;;;;5013164;28;20026;-58
2022/12/05 10:02:48;;;;;;;21.23;15.27;;;11.60;92.50;;;;;;5010348;28;20033;-58
2022/12/05 10:05:21;;;;;;;29.57;14.63;;;11.70;92.50;;;;;;5008311;28;20105;-59
2022/12/05 10:08:09;;;;;;;;;;;11.90;92.10;;;;;;5006491;28;20375;-58
2022/12/05 10:10:55;;;;;;;28.88;14.95;;;12.00;92.30;;;;;;5000613;28;19932;-59
2022/12/05 10:14:01;;;;;;;24.63;14.60;;;11.80;92.50;;;;;;5001439;28;20037;-57
2022/12/05 10:16:50;;;;;;;22.63;13.15;;;11.80;92.20;;;;;;5017179;28;20032;-58
2022/12/05 10:19:22;;;;;;;19.00;12.77;;;11.70;92.40;;;;;;4997569;28;20537;-56
2022/12/05 10:22:00;;;;;;;15.73;12.30;;;11.80;92.50;;;;;;5015547;28;20621;-57
2022/12/05 10:24:42;;;;;;;15.85;12.25;;;11.80;92.60;;;;;;5006461;28;20113;-56
2022/12/05 10:27:15;;;;;;;23.05;12.77;;;11.80;92.30;;;;;;5010743;28;20076;-56
2022/12/05 10:30:00;;;;;;;19.33;11.95;;;11.70;92.50;;;;;;5010116;28;20120;-59
2022/12/05 10:33:00;;;;;;;15.43;10.60;;;11.80;92.40;;;;;;5011657;28;20026;-58
2022/12/05 10:35:37;;;;;;;15.15;11.20;;;11.60;92.40;;;;;;5015249;28;20073;-58
2022/12/05 10:38:23;;;;;;;12.90;11.20;;;11.60;92.60;;;;;;5006561;28;20061;-56
2022/12/05 10:40:53;;;;;;;18.17;11.38;;;11.60;92.60;;;;;;5009888;28;20030;-56
2022/12/05 10:43:27;;;;;;;16.52;11.35;;;11.80;92.40;;;;;;5010881;28;20112;-57
2022/12/05 10:45:53;;;;;;;19.08;10.27;;;11.80;92.50;;;;;;5002525;28;20088;-56
2022/12/05 10:48:21;;;;;;;22.85;12.02;;;11.80;92.70;;;;;;5008471;28;20030;-59
2022/12/05 10:50:54;;;;;;;18.15;11.68;;;11.90;92.40;;;;;;5010458;28;20019;-60
2022/12/05 10:53:25;;;;;;;16.98;11.73;;;11.80;92.20;;;;;;5008539;28;20041;-58
2022/12/05 10:55:51;;;;;;;16.33;12.32;;;11.80;92.20;;;;;;5005590;28;20084;-57
2022/12/05 10:58:25;;;;;;;18.48;11.75;;;11.80;92.40;;;;;;5007427;28;20129;-62
2022/12/05 11:00:57;;;;;;;14.60;12.10;;;11.80;92.40;;;;;;5004138;28;20538;-66
2022/12/05 11:03:25;;;;;;;21.25;11.75;;;11.80;92.60;;;;;;5003642;28;20032;-58
2022/12/05 11:05:52;;;;;;;15.45;10.82;;;11.90;93.20;;;;;;5006237;28;20034;-66
2022/12/05 11:08:26;;;;;;;15.32;11.15;;;12.20;93.30;;;;;;5010258;28;20112;-62
2022/12/05 11:11:16;;;;;;;13.95;10.93;;;12.30;91.90;;;;;;5006880;28;20026;-66
2022/12/05 11:14:06;;;;;;;13.07;10.60;;;11.90;91.70;;;;;;5003800;28;20121;-63
2022/12/05 11:16:34;;;;;;;14.45;11.80;;;11.70;92.00;;;;;;5010712;28;20033;-61
2022/12/05 11:19:18;;;;;;;14.57;12.38;;;11.70;91.80;;;;;;5011369;28;20072;-60
2022/12/05 11:21:58;;;;;;;14.68;11.55;;;11.60;92.00;;;;;;5011565;28;20430;-60
2022/12/05 11:24:37;;;;;;;13.35;10.88;;;11.50;92.30;;;;;;5016103;28;20022;-60
2022/12/05 11:27:15;;;;;;;13.63;11.18;;;11.50;92.10;;;;;;5010239;28;20038;-60
2022/12/05 11:29:41;;;;;;;29.92;12.75;;;11.60;92.10;;;;;;5001343;28;20018;-58
2022/12/05 11:32:19;;;;;;;38.80;14.43;;;11.70;91.90;;;;;;5005865;28;20037;-58
2022/12/05 11:35:08;;;;;;;22.48;10.77;;;11.70;91.60;;;;;;5007747;28;20080;-60
2022/12/05 11:37:57;;;;;;;72.53;16.63;;;11.70;91.30;;;;;;5012526;28;20025;-59
2022/12/05 11:40:55;;;;;;;18.88;9.60;;;11.50;91.40;;;;;;5013374;28;20060;-64
2022/12/05 11:43:37;;;;;;;17.35;9.77;;;11.40;91.60;;;;;;4982586;28;20583;-64
2022/12/05 11:46:30;;;;;;;1999.90;421.87;;;11.40;91.60;;;;;;5008626;28;20030;-57
2022/12/05 11:48:59;;;;;;;110.55;23.73;;;11.30;91.80;;;;;;5006409;28;20305;-61
2022/12/05 11:51:37;;;;;;;70.00;16.30;;;11.20;91.80;;;;;;5007703;28;20044;-58
2022/12/05 11:54:29;;;;;;;19.98;11.98;;;11.20;92.10;;;;;;5007913;28;20038;-60
2022/12/05 11:57:05;;;;;;;46.10;15.20;;;11.20;92.10;;;;;;5012984;28;20029;-60
2022/12/05 11:59:52;;;;;;;80.22;18.23;;;11.20;92.30;;;;;;5009347;28;20045;-61
2022/12/05 12:02:32;;;;;;;23.45;10.80;;;11.00;92.40;;;;;;5007874;28;20021;-58
2022/12/05 12:05:13;;;;;;;183.32;34.47;;;11.10;92.30;;;;;;5009050;28;20117;-65
2022/12/05 12:08:05;;;;;;;16.30;10.82;;;11.00;92.30;;;;;;5017301;28;20064;-57
2022/12/05 12:10:50;;;;;;;;;;;11.10;92.50;;;;;;5010032;28;20034;-66
2022/12/05 12:13:48;;;;;;;14.75;10.93;;;11.20;92.40;;;;;;5000700;28;19945;-61
2022/12/05 12:16:25;;;;;;;16.67;11.95;;;11.10;92.70;;;;;;4965332;28;20038;-62
2022/12/05 12:18:58;;;;;;;17.85;11.48;;;11.10;92.50;;;;;;5005740;28;20033;-63
2022/12/05 12:21:42;;;;;;;19.20;12.93;;;11.10;92.60;;;;;;5007537;28;20447;-55
2022/12/05 12:24:46;;;;;;;17.30;13.30;;;11.10;92.80;;;;;;5004502;28;20401;-53
2022/12/05 12:27:35;;;;;;;22.50;13.25;;;11.00;92.80;;;;;;5012479;28;20036;-57
2022/12/05 12:30:13;;;;;;;23.13;13.95;;;11.00;93.20;;;;;;5015356;28;20037;-59
2022/12/05 12:32:42;;;;;;;23.73;13.30;;;11.10;93.20;;;;;;5003360;28;20042;-59
2022/12/05 12:35:20;;;;;;;29.40;14.93;;;11.30;93.00;;;;;;5009690;28;20030;-58
2022/12/05 12:38:16;;;;;;;30.27;15.00;;;11.40;92.70;;;;;;5010736;28;20049;-55
2022/12/05 12:40:58;;;;;;;22.92;14.07;;;11.60;92.80;;;;;;5000390;28;20048;-62
2022/12/05 12:43:27;;;;;;;26.65;15.02;;;11.60;92.60;;;;;;5009788;28;20018;-58
2022/12/05 12:46:15;;;;;;;27.00;16.33;;;11.50;92.80;;;;;;5004026;28;20033;-65
2022/12/05 12:48:57;;;;;;;24.05;15.10;;;11.40;92.90;;;;;;5010696;28;20416;-58
2022/12/05 12:51:23;;;;;;;22.13;15.30;;;11.60;92.80;;;;;;5011231;28;20025;-59
2022/12/05 12:54:20;;;;;;;19.90;16.80;;;11.70;92.80;;;;;;5012609;28;20044;-56
2022/12/05 12:57:01;;;;;;;23.83;16.77;;;11.70;92.20;;;;;;5009236;28;20022;-54
2022/12/05 12:59:30;;;;;;;23.55;17.02;;;11.50;92.90;;;;;;5017151;28;20393;-56
2022/12/05 13:02:11;;;;;;;22.88;16.65;;;11.60;92.70;;;;;;5021616;28;20056;-60